メインページ
METAR-TAF:

METAR-TAF

空港 :

コトカ国際空港

アクラ, ガーナ

緯度: 05-36N, 経度: 000-10W, 海抜: 68m

現時点の気象観測

当レポートは39分前の20:00(UTC)に作成
南/南西の風 13kt
気温 25°C
湿度 94%
気圧 1013 hPa
視程10km以上
高度1000ftの千切れ雲あり
高度4400ftの千切れ雲あり

METAR: DGAA 172000Z 21013KT 9999 BKN010 BKN044 25/24 Q1013 NOSIG

時間: 20:39 (20:39 UTC)

予報

当レポートは3時間39分前の17:00(UTC)に作成
予報は17日の 18時(UTC)から 18日の 24時(UTC)まで有効
南/南西の風 12kt
視程10km以上
高度1000ftの千切れ雲あり
高度3800ftの千切れ雲あり
確率 40%
17日の 18時(UTC)から 17日の 21時(UTC)まで
高度2000ftの雲は散在している
18日の 11時(UTC)から 18日の 13時(UTC)まで徐々に
高度1500ftの千切れ雲あり
18日の 16時(UTC)から 18日の 20時(UTC)まで一時的に
視程: 7000m
高度1000ftの千切れ雲あり
高度1800ftの曇り

TAF: DGAA 171700Z 1718/1824 21012KT 9999 BKN010 BKN038 PROB40 1718/1721 SCT020 BECMG 1811/1813 BKN015 PTOB30 TEMPO 1816/1820 7000 RA BKN010 OVC018

4,000以上の空港の気象観測と天気予報(METAR報とTAF報)

利用可能な観測所は地図上に黄色い丸と赤い丸で示す。

丸の上にカーソルを重ねると観測所名を参照できる。

次にクリックすると気象観測と天気予報を参照できる。

マップの切り替え:黒色「×」印の緑ボタンをクリックして拡大、「-」印の緑ボタンをクリックして縮小、緑色の三角印をクリックして隣りの地図に切り替え


METAR-TAF: